sensor_id;sensor_type;location;lat;lon;timestamp;temperature;humidity
18717;DHT22;9487;50.892;6.906;2023-05-07T00:00:51;15.40;99.90
18717;DHT22;9487;50.892;6.906;2023-05-07T00:03:19;15.40;99.90
18717;DHT22;9487;50.892;6.906;2023-05-07T00:05:46;15.50;99.90
18717;DHT22;9487;50.892;6.906;2023-05-07T00:08:13;15.50;99.90
18717;DHT22;9487;50.892;6.906;2023-05-07T00:10:40;15.40;99.90
18717;DHT22;9487;50.892;6.906;2023-05-07T00:13:07;15.40;99.90
18717;DHT22;9487;50.892;6.906;2023-05-07T00:15:34;15.40;99.90
18717;DHT22;9487;50.892;6.906;2023-05-07T00:18:01;15.30;99.90
18717;DHT22;9487;50.892;6.906;2023-05-07T00:20:29;15.30;99.90
18717;DHT22;9487;50.892;6.906;2023-05-07T00:22:56;15.20;99.90
18717;DHT22;9487;50.892;6.906;2023-05-07T00:25:23;15.20;99.90
18717;DHT22;9487;50.892;6.906;2023-05-07T00:27:50;15.30;99.90
18717;DHT22;9487;50.892;6.906;2023-05-07T00:30:17;15.30;99.90
18717;DHT22;9487;50.892;6.906;2023-05-07T00:32:43;15.30;99.90
18717;DHT22;9487;50.892;6.906;2023-05-07T00:35:11;15.30;99.90
18717;DHT22;9487;50.892;6.906;2023-05-07T00:37:39;15.30;99.90
18717;DHT22;9487;50.892;6.906;2023-05-07T00:40:07;15.30;99.90
18717;DHT22;9487;50.892;6.906;2023-05-07T00:42:35;15.30;99.90
18717;DHT22;9487;50.892;6.906;2023-05-07T00:45:02;15.30;99.90
18717;DHT22;9487;50.892;6.906;2023-05-07T00:47:29;15.30;99.90
18717;DHT22;9487;50.892;6.906;2023-05-07T00:49:57;15.30;99.90
18717;DHT22;9487;50.892;6.906;2023-05-07T00:52:25;15.40;99.90
18717;DHT22;9487;50.892;6.906;2023-05-07T00:54:54;15.40;99.90
18717;DHT22;9487;50.892;6.906;2023-05-07T00:57:21;15.30;99.90
18717;DHT22;9487;50.892;6.906;2023-05-07T00:59:51;15.20;99.90
18717;DHT22;9487;50.892;6.906;2023-05-07T01:02:18;15.20;99.90
18717;DHT22;9487;50.892;6.906;2023-05-07T01:04:45;15.20;99.90
18717;DHT22;9487;50.892;6.906;2023-05-07T01:07:12;15.00;99.90
18717;DHT22;9487;50.892;6.906;2023-05-07T01:09:40;15.00;99.90
18717;DHT22;9487;50.892;6.906;2023-05-07T01:12:08;15.00;99.90
18717;DHT22;9487;50.892;6.906;2023-05-07T01:14:35;15.00;99.90
18717;DHT22;9487;50.892;6.906;2023-05-07T01:17:02;15.00;99.90
18717;DHT22;9487;50.892;6.906;2023-05-07T01:19:30;15.00;99.90
18717;DHT22;9487;50.892;6.906;2023-05-07T01:22:02;14.90;99.90
18717;DHT22;9487;50.892;6.906;2023-05-07T01:24:31;14.90;99.90
18717;DHT22;9487;50.892;6.906;2023-05-07T01:26:58;14.90;99.90
18717;DHT22;9487;50.892;6.906;2023-05-07T01:29:26;14.90;99.90
18717;DHT22;9487;50.892;6.906;2023-05-07T01:31:54;15.00;99.90
18717;DHT22;9487;50.892;6.906;2023-05-07T01:34:21;14.90;99.90
18717;DHT22;9487;50.892;6.906;2023-05-07T01:36:49;14.90;99.90
18717;DHT22;9487;50.892;6.906;2023-05-07T01:39:16;15.00;99.90
18717;DHT22;9487;50.892;6.906;2023-05-07T01:41:45;15.00;99.90
18717;DHT22;9487;50.892;6.906;2023-05-07T01:44:13;15.00;99.90
18717;DHT22;9487;50.892;6.906;2023-05-07T01:46:41;14.90;99.90
18717;DHT22;9487;50.892;6.906;2023-05-07T01:49:08;15.00;99.90
18717;DHT22;9487;50.892;6.906;2023-05-07T01:51:35;15.00;99.90
18717;DHT22;9487;50.892;6.906;2023-05-07T01:54:03;15.00;99.90
18717;DHT22;9487;50.892;6.906;2023-05-07T01:56:29;15.00;99.90
18717;DHT22;9487;50.892;6.906;2023-05-07T01:58:57;15.00;99.90
18717;DHT22;9487;50.892;6.906;2023-05-07T02:01:24;15.10;99.90
18717;DHT22;9487;50.892;6.906;2023-05-07T02:03:51;15.00;99.90
18717;DHT22;9487;50.892;6.906;2023-05-07T02:06:19;15.00;99.90
18717;DHT22;9487;50.892;6.906;2023-05-07T02:08:47;15.10;99.90
18717;DHT22;9487;50.892;6.906;2023-05-07T02:11:13;15.10;99.90
18717;DHT22;9487;50.892;6.906;2023-05-07T02:13:41;15.10;99.90
18717;DHT22;9487;50.892;6.906;2023-05-07T02:16:09;15.10;99.90
18717;DHT22;9487;50.892;6.906;2023-05-07T02:18:36;15.10;99.90
18717;DHT22;9487;50.892;6.906;2023-05-07T02:21:03;15.10;99.90
18717;DHT22;9487;50.892;6.906;2023-05-07T02:23:30;15.00;99.90
18717;DHT22;9487;50.892;6.906;2023-05-07T02:25:57;15.00;99.90
18717;DHT22;9487;50.892;6.906;2023-05-07T02:28:23;14.90;99.90
18717;DHT22;9487;50.892;6.906;2023-05-07T02:30:50;14.90;99.90
18717;DHT22;9487;50.892;6.906;2023-05-07T02:33:18;14.90;99.90
18717;DHT22;9487;50.892;6.906;2023-05-07T02:35:45;14.80;99.90
18717;DHT22;9487;50.892;6.906;2023-05-07T02:38:12;14.80;99.90
18717;DHT22;9487;50.892;6.906;2023-05-07T02:40:39;14.80;99.90
18717;DHT22;9487;50.892;6.906;2023-05-07T02:43:05;14.90;99.90
18717;DHT22;9487;50.892;6.906;2023-05-07T02:45:32;14.80;99.90
18717;DHT22;9487;50.892;6.906;2023-05-07T02:47:59;14.80;99.90
18717;DHT22;9487;50.892;6.906;2023-05-07T02:50:27;14.90;99.90
18717;DHT22;9487;50.892;6.906;2023-05-07T02:52:54;14.80;99.90
18717;DHT22;9487;50.892;6.906;2023-05-07T02:55:21;14.80;99.90
18717;DHT22;9487;50.892;6.906;2023-05-07T02:57:47;14.70;99.90
18717;DHT22;9487;50.892;6.906;2023-05-07T03:00:16;14.70;99.90
18717;DHT22;9487;50.892;6.906;2023-05-07T03:02:43;14.80;99.90
18717;DHT22;9487;50.892;6.906;2023-05-07T03:05:10;14.80;99.90
18717;DHT22;9487;50.892;6.906;2023-05-07T03:07:38;14.80;99.90
18717;DHT22;9487;50.892;6.906;2023-05-07T03:10:07;14.80;99.90
18717;DHT22;9487;50.892;6.906;2023-05-07T03:12:34;14.80;99.90
18717;DHT22;9487;50.892;6.906;2023-05-07T03:15:01;14.90;99.90
18717;DHT22;9487;50.892;6.906;2023-05-07T03:17:28;14.80;99.90
18717;DHT22;9487;50.892;6.906;2023-05-07T03:19:55;14.90;99.90
18717;DHT22;9487;50.892;6.906;2023-05-07T03:22:21;14.80;99.90
18717;DHT22;9487;50.892;6.906;2023-05-07T03:24:50;14.80;99.90
18717;DHT22;9487;50.892;6.906;2023-05-07T03:27:16;14.70;99.90
18717;DHT22;9487;50.892;6.906;2023-05-07T03:29:43;14.70;99.90
18717;DHT22;9487;50.892;6.906;2023-05-07T03:32:13;14.60;99.90
18717;DHT22;9487;50.892;6.906;2023-05-07T03:34:40;14.60;99.90
18717;DHT22;9487;50.892;6.906;2023-05-07T03:37:06;14.70;99.90
18717;DHT22;9487;50.892;6.906;2023-05-07T03:39:33;14.60;99.90
18717;DHT22;9487;50.892;6.906;2023-05-07T03:42:02;14.60;99.90
18717;DHT22;9487;50.892;6.906;2023-05-07T03:44:29;14.60;99.90
18717;DHT22;9487;50.892;6.906;2023-05-07T03:46:56;14.70;99.90
18717;DHT22;9487;50.892;6.906;2023-05-07T03:49:22;14.70;99.90
18717;DHT22;9487;50.892;6.906;2023-05-07T03:51:49;14.70;99.90
18717;DHT22;9487;50.892;6.906;2023-05-07T03:54:16;14.70;99.90
18717;DHT22;9487;50.892;6.906;2023-05-07T03:56:43;14.60;99.90
18717;DHT22;9487;50.892;6.906;2023-05-07T03:59:12;14.60;99.90
18717;DHT22;9487;50.892;6.906;2023-05-07T04:01:40;14.60;99.90
18717;DHT22;9487;50.892;6.906;2023-05-07T04:04:07;14.60;99.90
18717;DHT22;9487;50.892;6.906;2023-05-07T04:09:02;14.50;99.90
18717;DHT22;9487;50.892;6.906;2023-05-07T04:11:29;14.50;99.90
18717;DHT22;9487;50.892;6.906;2023-05-07T04:13:55;14.50;99.90
18717;DHT22;9487;50.892;6.906;2023-05-07T04:16:24;14.50;99.90
18717;DHT22;9487;50.892;6.906;2023-05-07T04:18:50;14.40;99.90
18717;DHT22;9487;50.892;6.906;2023-05-07T04:21:19;14.50;99.90
18717;DHT22;9487;50.892;6.906;2023-05-07T04:23:46;14.50;99.90
18717;DHT22;9487;50.892;6.906;2023-05-07T04:26:14;14.50;99.90
18717;DHT22;9487;50.892;6.906;2023-05-07T04:28:41;14.60;99.90
18717;DHT22;9487;50.892;6.906;2023-05-07T04:31:08;14.60;99.90
18717;DHT22;9487;50.892;6.906;2023-05-07T04:33:36;14.60;99.90
18717;DHT22;9487;50.892;6.906;2023-05-07T04:36:04;14.60;99.90
18717;DHT22;9487;50.892;6.906;2023-05-07T04:38:31;14.70;99.90
18717;DHT22;9487;50.892;6.906;2023-05-07T04:41:03;14.70;99.90
18717;DHT22;9487;50.892;6.906;2023-05-07T04:43:30;14.80;99.90
18717;DHT22;9487;50.892;6.906;2023-05-07T04:45:57;14.80;99.90
18717;DHT22;9487;50.892;6.906;2023-05-07T04:48:24;14.90;99.90
18717;DHT22;9487;50.892;6.906;2023-05-07T04:50:53;14.90;99.90
18717;DHT22;9487;50.892;6.906;2023-05-07T04:53:20;14.90;99.90
18717;DHT22;9487;50.892;6.906;2023-05-07T04:55:47;14.90;99.90
18717;DHT22;9487;50.892;6.906;2023-05-07T04:58:14;14.90;99.90
18717;DHT22;9487;50.892;6.906;2023-05-07T05:00:41;14.90;99.90
18717;DHT22;9487;50.892;6.906;2023-05-07T05:03:09;15.00;99.90
18717;DHT22;9487;50.892;6.906;2023-05-07T05:05:36;15.00;99.90
18717;DHT22;9487;50.892;6.906;2023-05-07T05:08:05;15.10;99.90
18717;DHT22;9487;50.892;6.906;2023-05-07T05:10:31;15.10;99.90
18717;DHT22;9487;50.892;6.906;2023-05-07T05:12:59;15.00;99.90
18717;DHT22;9487;50.892;6.906;2023-05-07T05:15:26;15.00;99.90
18717;DHT22;9487;50.892;6.906;2023-05-07T05:17:53;14.90;99.90
18717;DHT22;9487;50.892;6.906;2023-05-07T05:20:19;15.00;99.90
18717;DHT22;9487;50.892;6.906;2023-05-07T05:22:46;15.10;99.90
18717;DHT22;9487;50.892;6.906;2023-05-07T05:25:15;15.10;99.90
18717;DHT22;9487;50.892;6.906;2023-05-07T05:27:41;15.20;99.90
18717;DHT22;9487;50.892;6.906;2023-05-07T05:30:09;15.30;99.90
18717;DHT22;9487;50.892;6.906;2023-05-07T05:32:36;15.30;32.50
18717;DHT22;9487;50.892;6.906;2023-05-07T05:35:03;15.30;1.00
18717;DHT22;9487;50.892;6.906;2023-05-07T05:37:31;15.40;1.00
18717;DHT22;9487;50.892;6.906;2023-05-07T05:39:58;15.50;1.00
18717;DHT22;9487;50.892;6.906;2023-05-07T05:42:26;15.50;1.00
18717;DHT22;9487;50.892;6.906;2023-05-07T05:44:52;15.60;1.00
18717;DHT22;9487;50.892;6.906;2023-05-07T05:47:19;15.60;1.00
18717;DHT22;9487;50.892;6.906;2023-05-07T05:49:46;15.60;1.00
18717;DHT22;9487;50.892;6.906;2023-05-07T05:52:13;15.60;1.00
18717;DHT22;9487;50.892;6.906;2023-05-07T05:54:40;15.70;1.00
18717;DHT22;9487;50.892;6.906;2023-05-07T05:57:07;15.70;1.00
18717;DHT22;9487;50.892;6.906;2023-05-07T05:59:35;15.80;1.00
18717;DHT22;9487;50.892;6.906;2023-05-07T06:02:02;15.80;1.00
18717;DHT22;9487;50.892;6.906;2023-05-07T06:04:29;15.80;1.00
18717;DHT22;9487;50.892;6.906;2023-05-07T06:06:56;15.90;1.00
18717;DHT22;9487;50.892;6.906;2023-05-07T06:09:22;15.90;1.00
18717;DHT22;9487;50.892;6.906;2023-05-07T06:11:49;15.90;1.00
18717;DHT22;9487;50.892;6.906;2023-05-07T06:14:16;15.90;1.00
18717;DHT22;9487;50.892;6.906;2023-05-07T06:16:44;16.00;1.00
18717;DHT22;9487;50.892;6.906;2023-05-07T06:19:11;16.10;1.00
18717;DHT22;9487;50.892;6.906;2023-05-07T06:21:39;16.30;1.00
18717;DHT22;9487;50.892;6.906;2023-05-07T06:24:06;16.30;1.00
18717;DHT22;9487;50.892;6.906;2023-05-07T06:26:33;16.40;1.00
18717;DHT22;9487;50.892;6.906;2023-05-07T06:29:00;16.30;1.00
18717;DHT22;9487;50.892;6.906;2023-05-07T06:31:30;16.50;1.00
18717;DHT22;9487;50.892;6.906;2023-05-07T06:33:58;16.50;99.90
18717;DHT22;9487;50.892;6.906;2023-05-07T06:36:27;16.40;99.90
18717;DHT22;9487;50.892;6.906;2023-05-07T06:38:54;16.40;99.90
18717;DHT22;9487;50.892;6.906;2023-05-07T06:41:21;16.50;99.90
18717;DHT22;9487;50.892;6.906;2023-05-07T06:43:48;16.60;99.90
18717;DHT22;9487;50.892;6.906;2023-05-07T06:46:15;16.60;99.90
18717;DHT22;9487;50.892;6.906;2023-05-07T06:48:42;16.70;99.90
18717;DHT22;9487;50.892;6.906;2023-05-07T06:51:10;16.90;99.90
18717;DHT22;9487;50.892;6.906;2023-05-07T06:53:37;17.00;99.90
18717;DHT22;9487;50.892;6.906;2023-05-07T06:56:04;17.10;99.90
18717;DHT22;9487;50.892;6.906;2023-05-07T06:58:31;17.20;99.90
18717;DHT22;9487;50.892;6.906;2023-05-07T07:00:58;17.20;99.90
18717;DHT22;9487;50.892;6.906;2023-05-07T07:03:25;17.30;99.90
18717;DHT22;9487;50.892;6.906;2023-05-07T07:05:52;17.30;92.50
18717;DHT22;9487;50.892;6.906;2023-05-07T07:08:22;17.40;39.40
18717;DHT22;9487;50.892;6.906;2023-05-07T07:10:49;17.50;51.10
18717;DHT22;9487;50.892;6.906;2023-05-07T07:13:15;17.60;1.00
18717;DHT22;9487;50.892;6.906;2023-05-07T07:15:43;17.70;1.00
18717;DHT22;9487;50.892;6.906;2023-05-07T07:18:11;17.60;1.00
18717;DHT22;9487;50.892;6.906;2023-05-07T07:20:38;17.60;1.00
18717;DHT22;9487;50.892;6.906;2023-05-07T07:23:05;17.70;1.00
18717;DHT22;9487;50.892;6.906;2023-05-07T07:25:33;17.70;1.00
18717;DHT22;9487;50.892;6.906;2023-05-07T07:28:00;17.80;1.00
18717;DHT22;9487;50.892;6.906;2023-05-07T07:30:27;18.00;1.00
18717;DHT22;9487;50.892;6.906;2023-05-07T07:32:53;18.00;1.00
18717;DHT22;9487;50.892;6.906;2023-05-07T07:35:25;18.00;1.00
18717;DHT22;9487;50.892;6.906;2023-05-07T07:37:52;18.00;1.00
18717;DHT22;9487;50.892;6.906;2023-05-07T07:40:19;18.00;1.00
18717;DHT22;9487;50.892;6.906;2023-05-07T07:42:47;18.10;1.00
18717;DHT22;9487;50.892;6.906;2023-05-07T07:45:14;18.10;1.00
18717;DHT22;9487;50.892;6.906;2023-05-07T07:47:41;18.20;1.00
18717;DHT22;9487;50.892;6.906;2023-05-07T07:50:08;18.40;1.00
18717;DHT22;9487;50.892;6.906;2023-05-07T07:52:35;18.60;1.00
18717;DHT22;9487;50.892;6.906;2023-05-07T07:55:03;18.70;1.00
18717;DHT22;9487;50.892;6.906;2023-05-07T07:57:30;18.70;1.00
18717;DHT22;9487;50.892;6.906;2023-05-07T07:59:58;18.80;1.00
18717;DHT22;9487;50.892;6.906;2023-05-07T08:02:26;18.80;1.00
18717;DHT22;9487;50.892;6.906;2023-05-07T08:04:53;18.80;99.90
18717;DHT22;9487;50.892;6.906;2023-05-07T08:07:20;18.70;1.00
18717;DHT22;9487;50.892;6.906;2023-05-07T08:09:48;18.70;1.00
18717;DHT22;9487;50.892;6.906;2023-05-07T08:12:15;18.80;1.00
18717;DHT22;9487;50.892;6.906;2023-05-07T08:14:42;18.90;1.00
18717;DHT22;9487;50.892;6.906;2023-05-07T08:17:10;19.00;1.00
18717;DHT22;9487;50.892;6.906;2023-05-07T08:19:37;19.00;99.90
18717;DHT22;9487;50.892;6.906;2023-05-07T08:22:04;19.00;1.00
18717;DHT22;9487;50.892;6.906;2023-05-07T08:24:31;18.90;99.90
18717;DHT22;9487;50.892;6.906;2023-05-07T08:26:57;19.00;1.00
18717;DHT22;9487;50.892;6.906;2023-05-07T08:29:24;19.10;1.00
18717;DHT22;9487;50.892;6.906;2023-05-07T08:31:51;19.10;1.00
18717;DHT22;9487;50.892;6.906;2023-05-07T08:34:19;19.20;1.00
18717;DHT22;9487;50.892;6.906;2023-05-07T08:36:46;19.30;99.90
18717;DHT22;9487;50.892;6.906;2023-05-07T08:39:14;19.40;99.90
18717;DHT22;9487;50.892;6.906;2023-05-07T08:41:44;19.10;99.90
18717;DHT22;9487;50.892;6.906;2023-05-07T08:44:12;19.00;99.90
18717;DHT22;9487;50.892;6.906;2023-05-07T08:46:41;19.10;99.90
18717;DHT22;9487;50.892;6.906;2023-05-07T08:49:09;19.30;99.90
18717;DHT22;9487;50.892;6.906;2023-05-07T08:51:37;19.50;99.90
18717;DHT22;9487;50.892;6.906;2023-05-07T08:54:04;19.60;1.70
18717;DHT22;9487;50.892;6.906;2023-05-07T08:56:32;19.80;1.00
18717;DHT22;9487;50.892;6.906;2023-05-07T08:59:01;20.00;1.00
18717;DHT22;9487;50.892;6.906;2023-05-07T09:01:29;20.10;1.00
18717;DHT22;9487;50.892;6.906;2023-05-07T09:03:56;20.20;1.00
18717;DHT22;9487;50.892;6.906;2023-05-07T09:06:23;20.30;1.00
18717;DHT22;9487;50.892;6.906;2023-05-07T09:08:52;20.50;1.00
18717;DHT22;9487;50.892;6.906;2023-05-07T09:11:21;20.60;1.00
18717;DHT22;9487;50.892;6.906;2023-05-07T09:13:49;20.60;1.00
18717;DHT22;9487;50.892;6.906;2023-05-07T09:16:20;20.80;1.00
18717;DHT22;9487;50.892;6.906;2023-05-07T09:18:51;20.80;99.90
18717;DHT22;9487;50.892;6.906;2023-05-07T09:21:19;20.80;99.90
18717;DHT22;9487;50.892;6.906;2023-05-07T09:23:48;21.00;99.90
18717;DHT22;9487;50.892;6.906;2023-05-07T09:26:17;21.10;1.00
18717;DHT22;9487;50.892;6.906;2023-05-07T09:28:44;21.30;1.00
18717;DHT22;9487;50.892;6.906;2023-05-07T09:31:12;21.40;1.00
18717;DHT22;9487;50.892;6.906;2023-05-07T09:33:39;21.30;1.00
18717;DHT22;9487;50.892;6.906;2023-05-07T09:36:07;21.40;1.00
18717;DHT22;9487;50.892;6.906;2023-05-07T09:38:36;21.50;1.00
18717;DHT22;9487;50.892;6.906;2023-05-07T09:41:04;21.30;1.00
18717;DHT22;9487;50.892;6.906;2023-05-07T09:43:37;21.50;1.00
18717;DHT22;9487;50.892;6.906;2023-05-07T09:46:07;21.30;1.00
18717;DHT22;9487;50.892;6.906;2023-05-07T09:48:38;21.30;1.00
18717;DHT22;9487;50.892;6.906;2023-05-07T09:51:17;21.40;1.00
18717;DHT22;9487;50.892;6.906;2023-05-07T09:53:45;21.50;1.00
18717;DHT22;9487;50.892;6.906;2023-05-07T09:56:13;21.50;1.00
18717;DHT22;9487;50.892;6.906;2023-05-07T09:58:43;21.50;1.00
18717;DHT22;9487;50.892;6.906;2023-05-07T10:01:12;21.30;1.00
18717;DHT22;9487;50.892;6.906;2023-05-07T10:03:40;21.20;1.00
18717;DHT22;9487;50.892;6.906;2023-05-07T10:06:09;21.30;1.00
18717;DHT22;9487;50.892;6.906;2023-05-07T10:08:36;21.20;1.00
18717;DHT22;9487;50.892;6.906;2023-05-07T10:11:04;21.40;1.00
18717;DHT22;9487;50.892;6.906;2023-05-07T10:13:31;21.60;1.00
18717;DHT22;9487;50.892;6.906;2023-05-07T10:16:01;21.70;99.90
18717;DHT22;9487;50.892;6.906;2023-05-07T10:18:28;21.80;99.90
18717;DHT22;9487;50.892;6.906;2023-05-07T10:21:02;22.00;96.60
18717;DHT22;9487;50.892;6.906;2023-05-07T10:23:32;22.10;1.00
18717;DHT22;9487;50.892;6.906;2023-05-07T10:26:03;21.90;1.00
18717;DHT22;9487;50.892;6.906;2023-05-07T10:28:33;22.10;69.20
18717;DHT22;9487;50.892;6.906;2023-05-07T10:31:15;22.10;99.90
18717;DHT22;9487;50.892;6.906;2023-05-07T10:33:47;22.00;40.80
18717;DHT22;9487;50.892;6.906;2023-05-07T10:36:16;22.20;1.00
18717;DHT22;9487;50.892;6.906;2023-05-07T10:38:43;22.20;1.00
18717;DHT22;9487;50.892;6.906;2023-05-07T10:41:11;22.40;99.90
18717;DHT22;9487;50.892;6.906;2023-05-07T10:43:40;22.50;1.00
18717;DHT22;9487;50.892;6.906;2023-05-07T10:46:14;22.10;99.90
18717;DHT22;9487;50.892;6.906;2023-05-07T10:49:11;22.30;93.00
18717;DHT22;9487;50.892;6.906;2023-05-07T10:51:38;22.40;1.00
18717;DHT22;9487;50.892;6.906;2023-05-07T10:54:21;22.50;99.90
18717;DHT22;9487;50.892;6.906;2023-05-07T10:56:49;22.40;1.00
18717;DHT22;9487;50.892;6.906;2023-05-07T10:59:38;22.40;6.40
18717;DHT22;9487;50.892;6.906;2023-05-07T11:02:10;22.50;1.00
18717;DHT22;9487;50.892;6.906;2023-05-07T11:04:39;22.80;1.00
18717;DHT22;9487;50.892;6.906;2023-05-07T11:07:24;23.20;1.00
18717;DHT22;9487;50.892;6.906;2023-05-07T11:09:55;23.40;99.90
18717;DHT22;9487;50.892;6.906;2023-05-07T11:12:51;23.60;99.90
18717;DHT22;9487;50.892;6.906;2023-05-07T11:15:40;23.70;1.00
18717;DHT22;9487;50.892;6.906;2023-05-07T11:18:11;23.70;99.90
18717;DHT22;9487;50.892;6.906;2023-05-07T11:20:45;23.80;99.90
18717;DHT22;9487;50.892;6.906;2023-05-07T11:26:13;23.80;99.90
18717;DHT22;9487;50.892;6.906;2023-05-07T11:28:41;23.90;1.00
18717;DHT22;9487;50.892;6.906;2023-05-07T11:31:09;23.80;1.00
18717;DHT22;9487;50.892;6.906;2023-05-07T11:33:38;23.70;1.00
18717;DHT22;9487;50.892;6.906;2023-05-07T11:36:07;23.70;1.00
18717;DHT22;9487;50.892;6.906;2023-05-07T11:38:35;23.70;99.90
18717;DHT22;9487;50.892;6.906;2023-05-07T11:41:03;23.70;1.00
18717;DHT22;9487;50.892;6.906;2023-05-07T11:43:31;23.60;99.90
18717;DHT22;9487;50.892;6.906;2023-05-07T11:46:06;23.40;1.00
18717;DHT22;9487;50.892;6.906;2023-05-07T11:48:33;23.30;1.00
18717;DHT22;9487;50.892;6.906;2023-05-07T11:51:03;23.20;1.00
18717;DHT22;9487;50.892;6.906;2023-05-07T11:53:36;23.10;99.90
18717;DHT22;9487;50.892;6.906;2023-05-07T11:56:06;23.00;1.00
18717;DHT22;9487;50.892;6.906;2023-05-07T11:58:33;22.80;1.00
18717;DHT22;9487;50.892;6.906;2023-05-07T12:01:00;22.90;99.90
18717;DHT22;9487;50.892;6.906;2023-05-07T12:03:27;22.90;99.90
18717;DHT22;9487;50.892;6.906;2023-05-07T12:05:54;22.50;99.90
18717;DHT22;9487;50.892;6.906;2023-05-07T12:08:22;22.40;1.00
18717;DHT22;9487;50.892;6.906;2023-05-07T12:10:50;22.50;1.00
18717;DHT22;9487;50.892;6.906;2023-05-07T12:13:18;22.50;1.00
18717;DHT22;9487;50.892;6.906;2023-05-07T12:15:45;22.50;1.00
18717;DHT22;9487;50.892;6.906;2023-05-07T12:18:12;22.60;99.90
18717;DHT22;9487;50.892;6.906;2023-05-07T12:20:40;22.60;99.90
18717;DHT22;9487;50.892;6.906;2023-05-07T12:23:07;22.60;98.10
18717;DHT22;9487;50.892;6.906;2023-05-07T12:25:36;22.60;99.90
18717;DHT22;9487;50.892;6.906;2023-05-07T12:28:03;22.40;51.20
18717;DHT22;9487;50.892;6.906;2023-05-07T12:30:30;22.20;1.00
18717;DHT22;9487;50.892;6.906;2023-05-07T12:32:58;22.10;1.00
18717;DHT22;9487;50.892;6.906;2023-05-07T12:35:28;22.10;99.90
18717;DHT22;9487;50.892;6.906;2023-05-07T12:37:55;22.10;99.90
18717;DHT22;9487;50.892;6.906;2023-05-07T12:40:22;22.00;1.00
18717;DHT22;9487;50.892;6.906;2023-05-07T12:42:53;22.10;99.90
18717;DHT22;9487;50.892;6.906;2023-05-07T12:45:21;22.10;99.90
18717;DHT22;9487;50.892;6.906;2023-05-07T12:47:48;22.00;1.00
18717;DHT22;9487;50.892;6.906;2023-05-07T12:50:15;22.00;1.00
18717;DHT22;9487;50.892;6.906;2023-05-07T12:52:43;22.00;99.90
18717;DHT22;9487;50.892;6.906;2023-05-07T12:55:14;21.90;1.00
18717;DHT22;9487;50.892;6.906;2023-05-07T12:57:43;21.80;1.00
18717;DHT22;9487;50.892;6.906;2023-05-07T13:00:12;21.70;1.00
18717;DHT22;9487;50.892;6.906;2023-05-07T13:02:41;21.60;1.00
18717;DHT22;9487;50.892;6.906;2023-05-07T13:05:09;21.70;99.90
18717;DHT22;9487;50.892;6.906;2023-05-07T13:07:36;21.70;1.00
18717;DHT22;9487;50.892;6.906;2023-05-07T13:10:04;21.70;1.00
18717;DHT22;9487;50.892;6.906;2023-05-07T13:12:31;21.70;1.00
18717;DHT22;9487;50.892;6.906;2023-05-07T13:14:58;21.70;99.90
18717;DHT22;9487;50.892;6.906;2023-05-07T13:17:26;21.80;99.90
18717;DHT22;9487;50.892;6.906;2023-05-07T13:19:53;21.80;1.00
18717;DHT22;9487;50.892;6.906;2023-05-07T13:22:20;21.90;1.00
18717;DHT22;9487;50.892;6.906;2023-05-07T13:24:47;21.80;1.00
18717;DHT22;9487;50.892;6.906;2023-05-07T13:27:14;21.80;1.00
18717;DHT22;9487;50.892;6.906;2023-05-07T13:29:41;21.60;1.00
18717;DHT22;9487;50.892;6.906;2023-05-07T13:32:07;21.60;99.90
18717;DHT22;9487;50.892;6.906;2023-05-07T13:34:35;21.60;1.00
18717;DHT22;9487;50.892;6.906;2023-05-07T13:37:03;21.50;48.10
18717;DHT22;9487;50.892;6.906;2023-05-07T13:39:29;21.50;1.00
18717;DHT22;9487;50.892;6.906;2023-05-07T13:41:57;21.40;1.00
18717;DHT22;9487;50.892;6.906;2023-05-07T13:44:24;21.40;93.90
18717;DHT22;9487;50.892;6.906;2023-05-07T13:46:50;21.30;1.00
18717;DHT22;9487;50.892;6.906;2023-05-07T13:49:17;21.20;88.50
18717;DHT22;9487;50.892;6.906;2023-05-07T13:51:45;20.90;99.90
18717;DHT22;9487;50.892;6.906;2023-05-07T13:54:12;20.80;1.00
18717;DHT22;9487;50.892;6.906;2023-05-07T13:56:39;21.00;1.00
18717;DHT22;9487;50.892;6.906;2023-05-07T13:59:06;21.00;1.00
18717;DHT22;9487;50.892;6.906;2023-05-07T14:01:33;20.80;1.00
18717;DHT22;9487;50.892;6.906;2023-05-07T14:03:59;20.80;1.00
18717;DHT22;9487;50.892;6.906;2023-05-07T14:06:26;20.50;1.00
18717;DHT22;9487;50.892;6.906;2023-05-07T14:08:55;20.40;1.00
18717;DHT22;9487;50.892;6.906;2023-05-07T14:11:23;20.60;1.00
18717;DHT22;9487;50.892;6.906;2023-05-07T14:13:50;20.60;1.00
18717;DHT22;9487;50.892;6.906;2023-05-07T14:16:17;20.60;1.00
18717;DHT22;9487;50.892;6.906;2023-05-07T14:18:44;20.60;1.00
18717;DHT22;9487;50.892;6.906;2023-05-07T14:21:10;20.70;1.00
18717;DHT22;9487;50.892;6.906;2023-05-07T14:23:37;20.60;1.00
18717;DHT22;9487;50.892;6.906;2023-05-07T14:26:07;20.50;1.00
18717;DHT22;9487;50.892;6.906;2023-05-07T14:28:34;20.40;1.00
18717;DHT22;9487;50.892;6.906;2023-05-07T14:31:01;20.30;1.00
18717;DHT22;9487;50.892;6.906;2023-05-07T14:33:28;20.10;1.00
18717;DHT22;9487;50.892;6.906;2023-05-07T14:35:54;19.80;1.00
18717;DHT22;9487;50.892;6.906;2023-05-07T14:38:21;19.80;1.00
18717;DHT22;9487;50.892;6.906;2023-05-07T14:40:48;19.70;1.00
18717;DHT22;9487;50.892;6.906;2023-05-07T14:43:16;19.70;1.00
18717;DHT22;9487;50.892;6.906;2023-05-07T14:45:43;19.60;1.00
18717;DHT22;9487;50.892;6.906;2023-05-07T14:48:10;19.60;99.90
18717;DHT22;9487;50.892;6.906;2023-05-07T14:50:40;19.60;99.90
18717;DHT22;9487;50.892;6.906;2023-05-07T14:53:07;19.70;99.90
18717;DHT22;9487;50.892;6.906;2023-05-07T14:55:34;19.90;99.90
18717;DHT22;9487;50.892;6.906;2023-05-07T14:58:01;20.00;99.90
18717;DHT22;9487;50.892;6.906;2023-05-07T15:00:29;19.90;99.90
18717;DHT22;9487;50.892;6.906;2023-05-07T15:03:04;19.90;99.90
18717;DHT22;9487;50.892;6.906;2023-05-07T15:05:31;19.80;99.90
18717;DHT22;9487;50.892;6.906;2023-05-07T15:07:58;19.80;99.90
18717;DHT22;9487;50.892;6.906;2023-05-07T15:10:25;19.80;1.00
18717;DHT22;9487;50.892;6.906;2023-05-07T15:12:51;19.60;99.90
18717;DHT22;9487;50.892;6.906;2023-05-07T15:15:18;19.50;1.00
18717;DHT22;9487;50.892;6.906;2023-05-07T15:17:47;19.40;99.90
18717;DHT22;9487;50.892;6.906;2023-05-07T15:20:13;19.40;99.90
18717;DHT22;9487;50.892;6.906;2023-05-07T15:22:40;19.40;99.90
18717;DHT22;9487;50.892;6.906;2023-05-07T15:25:08;19.50;37.50
18717;DHT22;9487;50.892;6.906;2023-05-07T15:27:35;19.50;1.00
18717;DHT22;9487;50.892;6.906;2023-05-07T15:30:02;19.50;1.00
18717;DHT22;9487;50.892;6.906;2023-05-07T15:32:29;19.50;1.00
18717;DHT22;9487;50.892;6.906;2023-05-07T15:34:57;19.70;1.00
18717;DHT22;9487;50.892;6.906;2023-05-07T15:37:24;19.70;1.00
18717;DHT22;9487;50.892;6.906;2023-05-07T15:39:51;19.80;1.00
18717;DHT22;9487;50.892;6.906;2023-05-07T15:42:17;19.80;1.00
18717;DHT22;9487;50.892;6.906;2023-05-07T15:44:44;19.80;1.00
18717;DHT22;9487;50.892;6.906;2023-05-07T15:47:11;20.00;1.00
18717;DHT22;9487;50.892;6.906;2023-05-07T15:49:39;19.90;1.00
18717;DHT22;9487;50.892;6.906;2023-05-07T15:52:07;19.90;1.00
18717;DHT22;9487;50.892;6.906;2023-05-07T15:54:36;19.90;1.00
18717;DHT22;9487;50.892;6.906;2023-05-07T15:57:03;19.90;1.00
18717;DHT22;9487;50.892;6.906;2023-05-07T15:59:31;20.00;99.90
18717;DHT22;9487;50.892;6.906;2023-05-07T16:01:58;19.90;99.90